Time;durP1;ratioP1;P1;durP2;ratioP2;P2;SDS_P1;SDS_P2;PMS_P1;PMS_P2;Temp;Humidity;BMP_temperature;BMP_pressure;BME280_temperature;BME280_humidity;BME280_pressure;Samples;Min_cycle;Max_cycle;Signal;HPM_P1;HPM_P2
2022/08/15 00:00:26;;;;;;;;;15.50;15.50;;;;;25.88;60.00;100349.91;5026274;28;8865;-67
2022/08/15 00:02:57;;;;;;;;;13.50;11.75;;;;;25.86;59.85;100353.00;5035053;28;11220;-67
2022/08/15 00:05:32;;;;;;;;;11.75;10.75;;;;;25.85;59.87;100350.56;5031323;28;8841;-67
2022/08/15 00:08:06;;;;;;;;;12.25;12.00;;;;;25.84;59.92;100346.13;5032116;28;8844;-67
2022/08/15 00:10:59;;;;;;;;;15.50;15.50;;;;;25.82;59.71;100346.47;5027960;28;8856;-67
2022/08/15 00:13:57;;;;;;;;;11.00;11.00;;;;;25.81;59.97;100344.84;5023076;28;8861;-66
2022/08/15 00:16:29;;;;;;;;;16.75;14.75;;;;;25.80;60.02;100343.19;5038033;28;8804;-66
2022/08/15 00:18:58;;;;;;;;;11.75;11.50;;;;;25.79;59.94;100338.78;5027719;28;8841;-66
2022/08/15 00:21:25;;;;;;;;;14.00;11.50;;;;;25.77;60.14;100335.53;5018618;28;8926;-66
2022/08/15 00:23:52;;;;;;;;;14.50;14.50;;;;;25.77;60.12;100332.78;5033182;28;8838;-65
2022/08/15 00:26:19;;;;;;;;;11.00;10.25;;;;;25.77;60.15;100334.69;5025285;28;8833;-65
2022/08/15 00:29:06;;;;;;;;;13.00;13.00;;;;;25.77;59.79;100331.94;5024089;28;8854;-65
2022/08/15 00:31:33;;;;;;;;;11.50;11.50;;;;;25.73;60.11;100334.50;5025731;28;8938;-66
2022/08/15 00:34:08;;;;;;;;;12.50;12.50;;;;;25.72;59.94;100318.25;5027041;28;8823;-66
2022/08/15 00:36:55;;;;;;;;;11.00;10.50;;;;;25.73;59.62;100328.16;5025940;28;9678;-65
2022/08/15 00:39:25;;;;;;;;;10.50;10.50;;;;;25.70;59.61;100318.56;5022953;28;8938;-66
2022/08/15 00:42:01;;;;;;;;;12.00;12.00;;;;;25.70;59.87;100320.50;5030924;28;9668;-66
2022/08/15 00:44:40;;;;;;;;;13.00;11.75;;;;;25.68;59.86;100323.56;5022748;28;8825;-65
2022/08/15 00:47:29;;;;;;;;;12.00;12.00;;;;;25.66;59.87;100325.81;5034458;28;8829;-64
2022/08/15 00:50:05;;;;;;;;;13.25;12.50;;;;;25.66;59.89;100320.31;5033403;28;8831;-65
2022/08/15 00:52:42;;;;;;;;;12.00;11.25;;;;;25.63;59.90;100310.69;5019075;28;8848;-65
2022/08/15 00:55:13;;;;;;;;;9.00;9.00;;;;;25.63;59.58;100313.47;5034063;28;9518;-66
2022/08/15 00:57:45;;;;;;;;;11.75;10.00;;;;;25.62;60.02;100313.78;5033779;28;8827;-65
2022/08/15 01:00:42;;;;;;;;;12.25;12.25;;;;;25.60;59.75;100305.81;5022791;28;8820;-66
2022/08/15 01:03:27;;;;;;;;;12.00;10.75;;;;;25.60;59.55;100308.59;5033782;28;8836;-67
2022/08/15 01:05:59;;;;;;;;;14.75;14.75;;;;;25.59;59.88;100306.94;5025117;28;8852;-66
2022/08/15 01:08:29;;;;;;;;;13.00;13.00;;;;;25.60;59.98;100299.47;5035146;28;8976;-66
2022/08/15 01:11:27;;;;;;;;;13.75;12.25;;;;;25.58;59.69;100302.53;5018582;28;8851;-66
2022/08/15 01:14:01;;;;;;;;;15.50;14.75;;;;;25.56;60.12;100302.06;5036222;28;8826;-66
2022/08/15 01:16:48;;;;;;;;;11.25;11.00;;;;;25.54;60.15;100303.47;5029780;28;8841;-67
2022/08/15 01:19:29;;;;;;;;;12.75;12.75;;;;;25.51;60.23;100293.06;5038749;28;8842;-67
2022/08/15 01:22:09;;;;;;;;;10.75;10.00;;;;;25.48;60.31;100291.75;5037614;28;9587;-68
2022/08/15 01:24:52;;;;;;;;;16.50;14.50;;;;;25.44;60.35;100287.13;5038038;28;8880;-68
2022/08/15 01:27:46;;;;;;;;;14.50;14.50;;;;;25.41;60.46;100283.06;5032937;28;8806;-65
2022/08/15 01:30:21;;;;;;;;;12.00;11.50;;;;;25.38;60.44;100280.94;5020705;28;8982;-68
2022/08/15 01:33:08;;;;;;;;;12.75;12.25;;;;;25.36;60.40;100277.66;5025426;28;8840;-66
2022/08/15 01:35:35;;;;;;;;;11.75;11.50;;;;;25.34;60.44;100282.66;5033795;28;8884;-66
2022/08/15 01:38:32;;;;;;;;;13.25;10.75;;;;;25.31;60.30;100273.06;5028945;28;9589;-66
2022/08/15 01:41:43;;;;;;;;;14.00;13.75;;;;;25.29;60.57;100285.53;5026348;28;8836;-66
2022/08/15 01:44:34;;;;;;;;;13.25;13.25;;;;;25.27;60.44;100282.25;5020667;28;8835;-66
2022/08/15 01:47:17;;;;;;;;;16.75;16.00;;;;;25.25;60.63;100285.31;5003803;28;8817;-65
2022/08/15 01:49:52;;;;;;;;;12.00;10.75;;;;;25.24;60.58;100282.84;5044496;28;8847;-67
2022/08/15 01:52:39;;;;;;;;;11.50;10.75;;;;;25.23;60.71;100271.03;5032679;28;8855;-67
2022/08/15 01:55:40;;;;;;;;;11.00;11.00;;;;;25.21;60.67;100266.97;5042840;28;9574;-64
2022/08/15 01:58:11;;;;;;;;;14.75;13.75;;;;;25.22;60.83;100269.41;5025036;28;8863;-65
2022/08/15 02:00:55;;;;;;;;;12.00;10.25;;;;;25.24;60.68;100266.31;5016174;28;8833;-66
2022/08/15 02:03:33;;;;;;;;;12.75;10.75;;;;;25.23;60.85;100259.19;5045661;28;8862;-65
2022/08/15 02:06:26;;;;;;;;;11.75;11.75;;;;;25.24;60.65;100255.31;5030671;28;9010;-66
2022/08/15 02:09:16;;;;;;;;;12.50;11.50;;;;;25.22;60.88;100249.28;5027113;28;8865;-66
2022/08/15 02:12:08;;;;;;;;;13.00;12.75;;;;;25.21;60.88;100244.91;5045563;28;8986;-66
2022/08/15 02:14:56;;;;;;;;;11.75;11.75;;;;;25.20;60.95;100246.88;5047294;28;8860;-66
2022/08/15 02:17:24;;;;;;;;;14.25;12.00;;;;;25.19;61.17;100252.66;5025312;28;8835;-66
2022/08/15 02:19:57;;;;;;;;;12.00;12.00;;;;;25.15;61.15;100256.03;5032428;28;8840;-65
2022/08/15 02:22:27;;;;;;;;;11.75;11.25;;;;;25.15;61.03;100258.78;5023268;28;8866;-65
2022/08/15 02:24:59;;;;;;;;;12.25;12.25;;;;;25.15;60.91;100256.03;5030145;28;8835;-66
2022/08/15 02:27:31;;;;;;;;;21.00;21.00;;;;;25.07;60.97;100270.47;5024240;28;8841;-65
2022/08/15 02:30:09;;;;;;;;;16.00;15.25;;;;;25.00;61.09;100277.53;5022782;28;8827;-66
2022/08/15 02:32:39;;;;;;;;;19.25;18.00;;;;;24.98;60.96;100269.56;5030964;28;8994;-66
2022/08/15 02:35:09;;;;;;;;;15.75;14.75;;;;;24.94;60.00;100265.78;5029147;28;8852;-65
2022/08/15 02:37:37;;;;;;;;;14.00;13.75;;;;;24.87;60.02;100273.59;5027539;28;8828;-66
2022/08/15 02:40:10;;;;;;;;;18.25;18.25;;;;;24.89;59.83;100287.91;5038437;28;8876;-66
2022/08/15 02:43:03;;;;;;;;;13.50;13.50;;;;;24.86;59.27;100278.31;5039717;28;8835;-65
2022/08/15 02:45:36;;;;;;;;;13.75;13.75;;;;;24.78;59.56;100278.19;5042479;28;8820;-66
2022/08/15 02:48:21;;;;;;;;;15.50;15.00;;;;;24.79;59.05;100285.31;5029645;28;8852;-66
2022/08/15 02:50:56;;;;;;;;;14.50;14.50;;;;;24.79;58.85;100268.81;5034337;28;8835;-67
2022/08/15 02:53:24;;;;;;;;;13.75;13.00;;;;;24.78;58.96;100275.44;5030500;28;8874;-65
2022/08/15 02:55:52;;;;;;;;;13.00;13.00;;;;;24.84;58.82;100272.28;5032561;28;8888;-65
2022/08/15 02:58:20;;;;;;;;;14.75;12.25;;;;;24.86;58.54;100270.03;5037853;28;8844;-65
2022/08/15 03:00:56;;;;;;;;;13.00;13.00;;;;;24.95;58.36;100272.09;5026218;28;8858;-65
2022/08/15 03:03:26;;;;;;;;;12.25;12.25;;;;;24.98;58.15;100275.06;5025771;28;8851;-65
2022/08/15 03:05:56;;;;;;;;;10.00;9.50;;;;;24.96;58.21;100265.50;5022587;28;9806;-65
2022/08/15 03:08:24;;;;;;;;;11.00;10.00;;;;;24.97;57.95;100262.41;5023997;28;8843;-66
2022/08/15 03:10:51;;;;;;;;;14.75;12.75;;;;;25.02;57.75;100267.00;5017762;28;9568;-66
2022/08/15 03:13:20;;;;;;;;;9.50;9.50;;;;;25.05;57.77;100269.16;5035697;28;8834;-66
2022/08/15 03:15:53;;;;;;;;;9.75;9.00;;;;;25.07;57.78;100264.16;5030184;28;8825;-67
2022/08/15 03:18:25;;;;;;;;;12.50;12.25;;;;;25.07;57.85;100259.44;5027365;28;8835;-67
2022/08/15 03:21:04;;;;;;;;;9.00;8.75;;;;;25.06;57.93;100255.06;5036719;28;8836;-67
2022/08/15 03:23:32;;;;;;;;;10.50;10.50;;;;;25.05;57.99;100260.91;5022926;28;8857;-66
2022/08/15 03:26:13;;;;;;;;;11.25;11.25;;;;;25.03;58.55;100260.38;5023044;28;8820;-66
2022/08/15 03:29:02;;;;;;;;;10.75;9.50;;;;;24.98;58.91;100255.78;5029721;28;8858;-66
2022/08/15 03:31:34;;;;;;;;;13.25;12.75;;;;;24.96;59.16;100247.03;5013967;28;8839;-66
2022/08/15 03:34:13;;;;;;;;;9.25;9.25;;;;;24.93;59.37;100244.88;5036326;28;8860;-66
2022/08/15 03:36:45;;;;;;;;;9.25;9.25;;;;;24.91;59.13;100239.69;5032368;28;8959;-67
2022/08/15 03:39:20;;;;;;;;;13.00;13.00;;;;;24.84;59.02;100235.69;5007682;28;9551;-66
2022/08/15 03:41:47;;;;;;;;;14.00;14.00;;;;;24.74;59.07;100233.13;5032573;28;8947;-67
2022/08/15 03:44:23;;;;;;;;;17.25;16.75;;;;;24.73;59.27;100234.25;5039692;28;8855;-66
2022/08/15 03:46:55;;;;;;;;;13.00;13.00;;;;;24.74;59.18;100224.88;5018451;28;8853;-67
2022/08/15 03:49:23;;;;;;;;;15.75;13.50;;;;;24.77;59.15;100219.56;5041562;28;8846;-67
2022/08/15 03:52:10;;;;;;;;;12.75;12.00;;;;;24.79;58.65;100224.75;5026448;28;8840;-67
2022/08/15 03:54:39;;;;;;;;;14.00;14.00;;;;;24.80;58.42;100223.66;5036217;28;9028;-67
2022/08/15 03:57:14;;;;;;;;;13.00;12.75;;;;;24.78;58.42;100228.63;5033145;28;8987;-67
2022/08/15 03:59:43;;;;;;;;;14.50;14.50;;;;;24.76;58.25;100223.44;5017929;28;8823;-68
2022/08/15 04:02:11;;;;;;;;;11.50;11.50;;;;;24.73;58.37;100217.72;5009275;28;8843;-68
2022/08/15 04:04:58;;;;;;;;;14.00;13.75;;;;;24.72;58.20;100214.16;5015347;28;8832;-66
2022/08/15 04:07:28;;;;;;;;;13.00;13.00;;;;;24.73;57.90;100209.47;5024954;28;8827;-66
2022/08/15 04:10:10;;;;;;;;;11.00;11.00;;;;;24.72;58.21;100222.44;5027447;28;8840;-66
2022/08/15 04:12:58;;;;;;;;;14.50;14.00;;;;;24.71;58.04;100223.53;5040359;28;8990;-66
2022/08/15 04:15:27;;;;;;;;;14.50;12.25;;;;;24.70;58.16;100221.09;5033649;28;8835;-66
2022/08/15 04:17:57;;;;;;;;;11.75;11.75;;;;;24.70;58.27;100223.84;5024995;28;8875;-66
2022/08/15 04:20:44;;;;;;;;;13.75;13.75;;;;;24.69;58.14;100223.03;5029157;28;9581;-66
2022/08/15 04:23:17;;;;;;;;;14.00;13.75;;;;;24.69;57.99;100227.72;5011065;28;8866;-66
2022/08/15 04:25:49;;;;;;;;;11.50;11.50;;;;;24.66;58.13;100248.41;5035711;28;8816;-67
2022/08/15 04:28:23;;;;;;;;;18.50;14.25;;;;;24.55;58.20;100264.28;5037970;28;8841;-66
2022/08/15 04:31:16;;;;;;;;;21.00;19.00;;;;;24.46;58.43;100271.56;5042636;28;8856;-66
2022/08/15 04:33:46;;;;;;;;;18.25;16.00;;;;;24.42;58.35;100268.59;5025660;28;8839;-66
2022/08/15 04:36:33;;;;;;;;;12.75;12.75;;;;;24.37;58.29;100268.66;5020493;28;8852;-66
2022/08/15 04:39:02;;;;;;;;;16.25;16.25;;;;;24.38;58.25;100258.50;5021801;28;8831;-65
2022/08/15 04:41:34;;;;;;;;;16.00;16.00;;;;;24.30;57.79;100237.97;5031608;28;8837;-65
2022/08/15 04:44:07;;;;;;;;;17.25;14.50;;;;;24.18;58.30;100238.47;5022512;28;8865;-64
2022/08/15 04:46:46;;;;;;;;;13.75;13.75;;;;;24.17;58.16;100238.75;5030210;28;8860;-67
2022/08/15 04:49:12;;;;;;;;;10.75;10.75;;;;;24.20;58.16;100240.09;5052217;28;8829;-67
2022/08/15 04:51:43;;;;;;;;;11.50;11.50;;;;;24.26;58.02;100242.44;5032060;28;8859;-67
2022/08/15 04:54:09;;;;;;;;;17.75;15.75;;;;;24.35;57.69;100248.91;5033063;28;8845;-67
2022/08/15 04:56:39;;;;;;;;;14.00;14.00;;;;;24.40;57.61;100253.53;5028064;28;8821;-67
2022/08/15 04:59:20;;;;;;;;;15.50;14.50;;;;;24.42;57.60;100252.09;5052414;28;8885;-66
2022/08/15 05:02:13;;;;;;;;;15.00;14.75;;;;;24.45;57.48;100258.94;5059034;22;8914;-64
2022/08/15 05:05:01;;;;;;;;;17.00;14.25;;;;;24.46;57.62;100274.34;5043720;28;8838;-65
2022/08/15 05:07:28;;;;;;;;;14.25;14.25;;;;;24.46;57.64;100285.34;5045650;28;8826;-65
2022/08/15 05:09:58;;;;;;;;;15.00;13.75;;;;;24.46;57.71;100290.84;5048401;28;8845;-64
2022/08/15 05:12:39;;;;;;;;;12.50;12.50;;;;;24.46;57.61;100281.78;5033114;28;8860;-66
2022/08/15 05:15:09;;;;;;;;;13.75;12.50;;;;;24.41;57.58;100279.94;5029476;28;8928;-64
2022/08/15 05:17:38;;;;;;;;;15.50;13.75;;;;;24.37;57.54;100263.16;5026165;28;8826;-67
2022/08/15 05:20:22;;;;;;;;;20.00;20.00;;;;;24.37;57.31;100267.84;5020431;28;8835;-64
2022/08/15 05:23:05;;;;;;;;;18.75;18.75;;;;;24.36;57.18;100268.97;5026729;28;8917;-67
2022/08/15 05:25:42;;;;;;;;;18.50;18.00;;;;;24.33;57.21;100255.81;5022255;28;8938;-67
2022/08/15 05:28:12;;;;;;;;;16.00;16.00;;;;;24.28;57.42;100264.16;5040844;28;8807;-67
2022/08/15 05:30:59;;;;;;;;;14.25;14.25;;;;;24.31;57.20;100269.06;5026841;28;8969;-67
2022/08/15 05:33:44;;;;;;;;;18.00;17.50;;;;;24.33;57.15;100264.06;5035319;28;9593;-67
2022/08/15 05:36:23;;;;;;;;;17.00;17.00;;;;;24.33;57.17;100275.88;5027076;28;8872;-66
2022/08/15 05:38:58;;;;;;;;;14.00;14.00;;;;;24.31;57.18;100269.88;5034252;28;8837;-64
2022/08/15 05:41:38;;;;;;;;;18.00;17.00;;;;;24.29;57.21;100280.34;5048017;28;8838;-67
2022/08/15 05:44:16;;;;;;;;;15.50;15.50;;;;;24.29;57.35;100280.34;5030337;28;8859;-66
2022/08/15 05:47:21;;;;;;;;;15.50;14.25;;;;;24.23;57.04;100275.25;5031475;28;8856;-66
2022/08/15 05:50:19;;;;;;;;;15.25;15.25;;;;;24.13;57.22;100268.78;5037694;28;8830;-67
2022/08/15 05:53:12;;;;;;;;;13.25;12.75;;;;;24.05;57.40;100274.94;5028137;28;8867;-67
2022/08/15 05:55:51;;;;;;;;;11.50;11.50;;;;;24.11;57.53;100287.53;5044447;28;8845;-66
2022/08/15 05:58:40;;;;;;;;;12.00;11.50;;;;;24.14;56.95;100289.66;5038275;28;8834;-66
2022/08/15 06:01:28;;;;;;;;;15.00;14.50;;;;;24.14;57.23;100289.66;5025371;28;10091;-67
2022/08/15 06:04:02;;;;;;;;;20.75;19.75;;;;;24.14;57.36;100286.09;5026711;28;8832;-66
2022/08/15 06:06:32;;;;;;;;;14.25;14.25;;;;;24.16;57.25;100287.44;5027557;28;8817;-67
2022/08/15 06:09:36;;;;;;;;;12.75;12.25;;;;;24.17;57.40;100288.25;5031415;28;8824;-67
2022/08/15 06:12:26;;;;;;;;;17.00;14.75;;;;;24.18;57.82;100287.97;5044148;28;8804;-67
2022/08/15 06:15:09;;;;;;;;;23.50;19.25;;;;;24.13;57.78;100287.22;5031059;28;8836;-65
2022/08/15 06:17:51;;;;;;;;;15.75;15.75;;;;;24.14;57.65;100289.66;5028751;28;8836;-66
2022/08/15 06:20:31;;;;;;;;;14.25;13.50;;;;;24.14;57.45;100292.41;5030804;28;8808;-67
2022/08/15 06:23:40;;;;;;;;;17.25;16.75;;;;;24.10;56.48;100285.88;5030161;28;8847;-67
2022/08/15 06:26:39;;;;;;;;;18.50;17.50;;;;;24.04;56.10;100303.56;5023144;28;8816;-67
2022/08/15 06:29:28;;;;;;;;;15.50;15.50;;;;;24.04;56.08;100305.50;5041606;28;8901;-68
2022/08/15 06:32:01;;;;;;;;;16.75;16.75;;;;;24.03;56.34;100314.88;5025804;28;8855;-67
2022/08/15 06:35:07;;;;;;;;;13.00;13.00;;;;;24.04;56.41;100311.81;5030780;28;8885;-67
2022/08/15 06:38:00;;;;;;;;;15.25;14.25;;;;;24.04;56.21;100316.50;5010845;28;8823;-67
2022/08/15 06:41:08;;;;;;;;;17.00;15.75;;;;;24.04;56.09;100317.31;5031083;28;8879;-67
2022/08/15 06:43:36;;;;;;;;;18.75;18.00;;;;;24.05;55.88;100318.13;5014404;28;8863;-66
2022/08/15 06:46:13;;;;;;;;;14.00;14.00;;;;;24.05;55.88;100320.88;5022701;28;8835;-67
2022/08/15 06:49:07;;;;;;;;;16.00;14.75;;;;;24.06;55.69;100317.81;5022676;28;8863;-67
2022/08/15 06:51:41;;;;;;;;;15.00;15.00;;;;;24.07;55.64;100308.47;5026768;28;8832;-67
2022/08/15 06:54:17;;;;;;;;;13.75;13.75;;;;;24.09;55.35;100297.16;5027200;28;8847;-67
2022/08/15 06:57:22;;;;;;;;;11.75;11.25;;;;;24.14;54.87;100300.66;5026038;28;8839;-67
2022/08/15 06:59:50;;;;;;;;;16.00;16.00;;;;;24.21;54.83;100304.97;5022855;28;8897;-67
2022/08/15 07:02:42;;;;;;;;;9.50;7.50;;;;;24.19;54.35;100302.53;5027962;28;8828;-67
2022/08/15 07:05:20;;;;;;;;;10.50;10.50;;;;;24.24;54.19;100307.94;5026564;28;8820;-67
2022/08/15 07:08:25;;;;;;;;;9.00;8.50;;;;;24.29;52.77;100301.53;5021480;28;8835;-67
2022/08/15 07:11:20;;;;;;;;;10.75;9.75;;;;;24.23;52.10;100300.00;5013636;28;8859;-67
2022/08/15 07:14:14;;;;;;;;;10.00;7.00;;;;;24.29;51.52;100296.03;5023048;28;8844;-66
2022/08/15 07:17:05;;;;;;;;;10.25;10.25;;;;;24.34;50.78;100288.50;5019689;28;8867;-66
2022/08/15 07:19:35;;;;;;;;;5.00;5.00;;;;;24.40;50.79;100286.56;5023825;28;8843;-66
2022/08/15 07:22:07;;;;;;;;;8.50;6.00;;;;;24.44;50.17;100289.53;5025219;28;8840;-65
2022/08/15 07:24:36;;;;;;;;;8.50;8.50;;;;;24.50;50.24;100283.63;5039832;28;8844;-65
2022/08/15 07:27:15;;;;;;;;;5.75;5.75;;;;;24.58;50.06;100293.94;5020777;28;8808;-66
2022/08/15 07:29:54;;;;;;;;;7.00;6.00;;;;;24.60;49.39;100293.66;5039038;28;8843;-65
2022/08/15 07:32:45;;;;;;;;;8.00;4.75;;;;;24.59;49.30;100294.75;5043143;28;8855;-65
2022/08/15 07:35:13;;;;;;;;;6.75;6.75;;;;;24.63;49.05;100291.13;5050783;28;9619;-65
2022/08/15 07:37:56;;;;;;;;;6.00;6.00;;;;;24.70;48.94;100287.97;5021164;28;8834;-65
2022/08/15 07:40:39;;;;;;;;;7.50;7.50;;;;;24.72;48.68;100279.41;5021023;28;8868;-65
2022/08/15 07:43:26;;;;;;;;;11.00;10.00;;;;;24.68;48.38;100281.94;5036438;28;9602;-66
2022/08/15 07:46:10;;;;;;;;;10.75;8.00;;;;;24.66;48.38;100285.00;5045333;28;8828;-66
2022/08/15 07:48:59;;;;;;;;;8.75;8.50;;;;;24.65;48.37;100286.13;5022277;28;8855;-66
2022/08/15 07:51:49;;;;;;;;;7.00;7.00;;;;;24.70;48.19;100290.72;5016208;28;8823;-68
2022/08/15 07:54:28;;;;;;;;;8.75;8.50;;;;;24.72;47.70;100282.97;5041247;28;8860;-66
2022/08/15 07:57:33;;;;;;;;;5.00;5.00;;;;;24.78;47.75;100289.19;5025578;28;8863;-65
2022/08/15 08:00:26;;;;;;;;;7.00;7.00;;;;;24.80;47.04;100293.28;5035766;28;9601;-68
2022/08/15 08:03:29;;;;;;;;;6.50;6.50;;;;;24.85;47.06;100292.38;5026844;28;8889;-65
2022/08/15 08:06:12;;;;;;;;;8.25;8.25;;;;;24.89;47.42;100296.97;5027788;28;8839;-67
2022/08/15 08:09:04;;;;;;;;;5.25;5.25;;;;;24.98;47.67;100291.59;5026242;28;8839;-67
2022/08/15 08:11:48;;;;;;;;;6.75;6.50;;;;;25.05;47.57;100288.44;5040905;28;8835;-65
2022/08/15 08:14:26;;;;;;;;;8.75;8.75;;;;;25.08;47.21;100283.16;5042621;28;8870;-65
2022/08/15 08:17:17;;;;;;;;;8.00;7.25;;;;;25.15;47.38;100278.06;5017646;28;8834;-66
2022/08/15 08:19:47;;;;;;;;;7.50;7.00;;;;;25.21;47.30;100284.28;5038877;28;8899;-67
2022/08/15 08:22:31;;;;;;;;;8.75;8.75;;;;;25.25;46.78;100281.75;5042860;28;8844;-68
2022/08/15 08:25:02;;;;;;;;;7.25;7.00;;;;;25.34;46.90;100286.22;5030768;28;8861;-66
2022/08/15 08:27:51;;;;;;;;;9.75;9.25;;;;;25.40;46.78;100289.69;5018838;28;8827;-65
2022/08/15 08:30:25;;;;;;;;;9.50;8.75;;;;;25.44;46.16;100296.22;5045511;28;8855;-65
2022/08/15 08:33:37;;;;;;;;;9.25;9.25;;;;;25.51;46.17;100285.59;5033289;28;8844;-66
2022/08/15 08:36:20;;;;;;;;;4.75;4.75;;;;;25.60;46.26;100285.69;5028026;28;8851;-66
2022/08/15 08:39:23;;;;;;;;;8.00;5.75;;;;;25.71;45.76;100280.78;5027360;28;9515;-67
2022/08/15 08:42:23;;;;;;;;;9.00;7.25;;;;;25.78;44.96;100282.03;5029545;28;8830;-66
2022/08/15 08:45:07;;;;;;;;;6.00;6.00;;;;;25.86;44.68;100286.81;5032268;28;8848;-66
2022/08/15 08:47:58;;;;;;;;;8.00;8.00;;;;;25.93;44.82;100291.91;5020883;28;8897;-65
2022/08/15 08:50:52;;;;;;;;;7.00;6.50;;;;;25.94;44.51;100296.28;5017011;28;8824;-66
2022/08/15 08:53:29;;;;;;;;;6.75;6.00;;;;;26.04;44.99;100295.22;5033902;28;8852;-65
2022/08/15 08:56:06;;;;;;;;;8.50;8.50;;;;;26.04;44.32;100296.03;5030707;28;9636;-65
2022/08/15 08:59:16;;;;;;;;;8.00;8.00;;;;;26.02;43.94;100295.56;5025903;28;8978;-64
2022/08/15 09:01:58;;;;;;;;;6.00;6.00;;;;;26.01;44.04;100298.59;5024593;28;9664;-66
2022/08/15 09:04:44;;;;;;;;;5.25;5.25;;;;;26.10;44.58;100286.53;5030491;28;8832;-66
2022/08/15 09:07:28;;;;;;;;;8.00;7.00;;;;;26.23;44.58;100284.84;5024527;28;8876;-67
2022/08/15 09:10:00;;;;;;;;;7.00;6.00;;;;;26.23;44.92;100286.81;5026608;28;8840;-66
2022/08/15 09:15:30;;;;;;;;;6.50;6.00;;;;;26.34;44.39;100297.28;5028722;28;9015;-65
2022/08/15 09:18:19;;;;;;;;;9.00;8.75;;;;;26.26;43.01;100302.75;5030755;28;8816;-66
2022/08/15 09:20:46;;;;;;;;;9.50;9.50;;;;;26.18;42.99;100309.81;5032827;28;8898;-66
2022/08/15 09:23:20;;;;;;;;;7.25;6.75;;;;;26.22;43.71;100301.72;5031480;28;8955;-65
2022/08/15 09:26:01;;;;;;;;;7.75;7.75;;;;;26.20;43.89;100307.53;5020038;28;8838;-68
2022/08/15 09:28:33;;;;;;;;;7.50;7.50;;;;;26.16;43.98;100301.00;5022748;28;8824;-65
2022/08/15 09:31:14;;;;;;;;;6.25;6.25;;;;;26.14;44.89;100303.28;5043510;28;8861;-68
2022/08/15 09:34:01;;;;;;;;;7.25;7.25;;;;;26.14;45.18;100306.84;5028728;28;8937;-65
2022/08/15 09:36:48;;;;;;;;;6.75;6.75;;;;;26.09;45.32;100308.91;5029005;28;8909;-66
2022/08/15 09:39:39;;;;;;;;;8.25;8.25;;;;;26.07;45.60;100308.41;5012994;28;8928;-65
2022/08/15 09:42:49;;;;;;;;;10.25;10.25;;;;;26.00;45.79;100311.59;5026865;28;8836;-65
2022/08/15 09:46:02;;;;;;;;;8.75;8.00;;;;;26.01;45.44;100309.63;5019426;28;8825;-65
2022/08/15 09:48:54;;;;;;;;;8.50;8.50;;;;;26.04;44.41;100306.25;5022100;28;8812;-66
2022/08/15 09:52:13;;;;;;;;;7.00;7.00;;;;;26.06;45.07;100317.81;5020771;28;8844;-66
2022/08/15 09:55:17;;;;;;;;;6.75;6.75;;;;;26.07;46.30;100313.94;5021869;28;8827;-66
2022/08/15 09:57:53;;;;;;;;;7.75;7.75;;;;;26.09;46.95;100319.94;5026185;28;8829;-66
2022/08/15 10:00:29;;;;;;;;;12.50;12.50;;;;;26.07;47.33;100319.44;5026653;28;8828;-65
2022/08/15 10:03:16;;;;;;;;;10.00;10.00;;;;;26.05;47.37;100319.75;5025710;28;8851;-66
2022/08/15 10:05:47;;;;;;;;;9.00;8.00;;;;;26.10;47.37;100316.88;5031135;28;8824;-65
2022/08/15 10:08:19;;;;;;;;;9.00;9.00;;;;;26.21;47.32;100317.47;5015459;28;9109;-65
2022/08/15 10:11:10;;;;;;;;;9.00;9.00;;;;;26.38;47.42;100323.13;5027317;28;8817;-66
2022/08/15 10:13:40;;;;;;;;;10.50;8.50;;;;;26.41;47.29;100312.56;5031940;28;8812;-65
2022/08/15 10:16:41;;;;;;;;;8.50;8.50;;;;;26.38;47.12;100314.03;5029843;28;8823;-66
2022/08/15 10:19:37;;;;;;;;;9.25;9.25;;;;;26.31;46.84;100322.72;5020420;28;8803;-66
2022/08/15 10:22:24;;;;;;;;;8.50;8.50;;;;;26.31;46.53;100324.69;5022536;28;9569;-65
2022/08/15 10:25:24;;;;;;;;;9.50;8.75;;;;;26.37;46.77;100324.25;5031101;28;8843;-65
2022/08/15 10:28:11;;;;;;;;;10.75;10.75;;;;;26.29;46.14;100329.69;5030678;28;9011;-67
2022/08/15 10:30:58;;;;;;;;;8.50;8.50;;;;;26.29;46.39;100332.44;5027491;28;9002;-65
2022/08/15 10:33:31;;;;;;;;;8.00;8.00;;;;;26.32;46.26;100329.06;5019316;28;8885;-65
2022/08/15 10:36:14;;;;;;;;;8.50;8.50;;;;;26.29;45.95;100330.53;5027652;28;8847;-64
2022/08/15 10:39:10;;;;;;;;;9.25;8.00;;;;;26.31;46.39;100333.78;5031385;28;8820;-65
2022/08/15 10:41:57;;;;;;;;;10.50;10.50;;;;;26.25;46.18;100342.47;5030062;28;9566;-66
2022/08/15 10:44:51;;;;;;;;;9.00;9.00;;;;;26.24;46.89;100346.38;5030636;28;8838;-65
2022/08/15 10:47:47;;;;;;;;;10.00;9.00;;;;;26.18;46.15;100344.88;5036003;28;8855;-65
2022/08/15 10:51:05;;;;;;;;;13.75;13.25;;;;;26.06;45.71;100348.16;5027487;28;8813;-67
2022/08/15 10:53:35;;;;;;;;;8.75;8.75;;;;;26.12;46.63;100352.41;5023822;28;8941;-67
2022/08/15 10:56:24;;;;;;;;;12.50;12.50;;;;;26.17;46.79;100345.97;5033959;28;8852;-67
2022/08/15 10:59:15;;;;;;;;;9.50;9.50;;;;;26.13;46.50;100343.84;5025873;28;8874;-67
2022/08/15 11:01:44;;;;;;;;;9.00;9.00;;;;;26.18;46.98;100350.38;5026426;28;8836;-68
2022/08/15 11:04:27;;;;;;;;;9.50;9.50;;;;;26.27;47.49;100348.50;5031064;28;8847;-67
2022/08/15 11:07:34;;;;;;;;;9.00;9.00;;;;;26.35;47.80;100350.53;5026800;28;8825;-65
2022/08/15 11:10:12;;;;;;;;;8.75;8.75;;;;;26.46;47.80;100354.72;5021490;28;8832;-67
2022/08/15 11:12:54;;;;;;;;;11.25;11.00;;;;;26.48;48.14;100348.88;5027978;28;8829;-67
2022/08/15 11:15:26;;;;;;;;;11.00;10.25;;;;;26.47;48.38;100356.34;5020703;28;8871;-66
2022/08/15 11:18:04;;;;;;;;;12.50;11.75;;;;;26.46;47.73;100360.22;5027897;28;8836;-68
2022/08/15 11:20:52;;;;;;;;;14.00;12.75;;;;;26.30;46.85;100359.75;5028562;28;8832;-68
2022/08/15 11:23:53;;;;;;;;;15.50;13.25;;;;;26.24;47.27;100360.16;5019140;28;9524;-67
2022/08/15 11:26:29;;;;;;;;;13.00;12.25;;;;;26.22;47.70;100365.19;5006477;28;8868;-67
2022/08/15 11:29:08;;;;;;;;;15.00;14.75;;;;;26.12;47.57;100369.78;5024983;28;8820;-66
2022/08/15 11:31:48;;;;;;;;;14.00;14.00;;;;;26.10;48.23;100380.31;5030095;28;8845;-66
2022/08/15 11:34:33;;;;;;;;;15.75;15.75;;;;;26.00;48.21;100377.78;5022648;28;8841;-67
2022/08/15 11:37:32;;;;;;;;;20.00;19.50;;;;;25.92;48.60;100383.22;5016866;28;8801;-65
2022/08/15 11:40:08;;;;;;;;;15.50;14.00;;;;;25.92;49.05;100389.53;5020322;28;8851;-65
2022/08/15 11:42:39;;;;;;;;;12.00;11.00;;;;;25.95;48.94;100388.94;5036000;28;8999;-66
2022/08/15 11:45:31;;;;;;;;;17.50;17.50;;;;;25.97;49.53;100396.88;5021638;28;8832;-64
2022/08/15 11:48:45;;;;;;;;;11.25;11.25;;;;;26.01;49.49;100397.91;5029935;28;8833;-65
2022/08/15 11:51:16;;;;;;;;;21.25;21.25;;;;;25.99;49.92;100392.69;5029493;28;8995;-66
2022/08/15 11:54:10;;;;;;;;;13.75;13.00;;;;;25.99;49.93;100392.69;5029886;28;9508;-66
2022/08/15 11:56:52;;;;;;;;;16.75;15.00;;;;;25.99;50.66;100398.22;5012695;28;8839;-66
2022/08/15 11:59:31;;;;;;;;;16.50;16.25;;;;;25.90;49.91;100391.81;5017469;28;8809;-66
2022/08/15 12:02:27;;;;;;;;;15.75;14.75;;;;;25.87;49.89;100395.16;5021314;28;8813;-66
2022/08/15 12:05:14;;;;;;;;;15.00;14.00;;;;;25.84;49.44;100395.78;5023719;28;8844;-68
2022/08/15 12:08:04;;;;;;;;;12.50;12.50;;;;;25.87;49.50;100395.97;5031013;28;8851;-66
2022/08/15 12:11:01;;;;;;;;;15.75;15.75;;;;;25.85;48.46;100402.94;5037175;28;8852;-65
2022/08/15 12:13:33;;;;;;;;;10.00;10.00;;;;;25.83;48.64;100405.19;5030769;28;8930;-66
2022/08/15 12:16:01;;;;;;;;;19.00;17.25;;;;;25.78;48.31;100406.09;5029989;28;8863;-65
2022/08/15 12:18:50;;;;;;;;;13.75;13.75;;;;;25.80;48.26;100397.50;5012142;28;8869;-66
2022/08/15 12:21:21;;;;;;;;;17.00;15.75;;;;;25.70;48.19;100405.97;5028547;28;8847;-66
2022/08/15 12:23:55;;;;;;;;;17.75;16.00;;;;;25.71;48.46;100410.34;5035463;28;9548;-65
2022/08/15 12:26:26;;;;;;;;;12.50;12.50;;;;;25.80;48.79;100412.09;5018267;28;8910;-66
2022/08/15 12:29:14;;;;;;;;;15.75;14.75;;;;;25.82;48.81;100401.59;5010244;28;8821;-66
2022/08/15 12:31:44;;;;;;;;;13.75;13.75;;;;;25.88;49.15;100407.81;5022879;28;8848;-65